Airfield :
LOGIN :

Register | Disclaimer

   EN    FR    IT 

 










Legend :    VFR   Marginal VFR   IFR   Intensive IFR   Very Intensive IFR
Visi :
Ceiling :
>= 8 km
>= 3000ft
5 to 8 km
1000 to 3000 ft
1500m to 5 km
500 to 1000 ft
800 to 1500m
200 to 500 ft
< 800m
< 200 ft
Symbols :   Thunderstorms  Fog  Heavy snow  Heavy precipitations  Wind > 20 kt
SIGMETs :     Misc.  Thunderstorms  Icing  Turbulence  Mountain Waves  Volcanic Ashes







- Airport Elevation : 29 ft
- IATA code : SVG


ENZV - Sola

CURRENT METAR :
  • 231350Z 34010G24KT 9999 VCSH FEW020CB BKN035 10/05 Q1010 TEMPO 31020G34KT 4000 SHRAGS BKN014CB

EXPIRED METARs :
  • 231320Z 30017KT 9999 -SHRA FEW020CB SCT030 BKN046 09/06 Q1010 TEMPO 31027G37KT 4000 SHRAGS BKN014CB
  • 231250Z 34013KT 300V010 9999 -SHRAGS FEW020CB SCT027 BKN047 10/06 Q1010 TEMPO 31018G28KT 4000 SHRAGS BKN014CB
  • 231220Z 01010KT 310V060 9999 -SHRAGR FEW020CB BKN035 08/05 Q1010 TEMPO 30015G25KT 4000 SHRAGS BKN014CB
  • 231150Z 02011KT 9999 VCSH FEW025CB BKN044 09/06 Q1009 TEMPO 32015KT SHRA BKN014CB
  • 231120Z 32019KT 9999 VCSH FEW030 SCT051CB BKN061 11/05 Q1009 TEMPO SHRA BKN014CB

TAF COR TAF ENZV
Valid from the 23 at 12:00 until the 24 at 12:00 UTC


2312/2412 35012KT 9999 FEW015TCU BKN030
TEMPO 2312/2412 30020G30KT 4000 SHRAGS BKN015CB
No reported NOTAMs for that airfield.



MET'MAP, your aeronautical weather chart ! - Copyright ORBIFLY December 2007 - Disclaimer

ORBIFLY MET'MAP TEAM :

Programming & Development : Alexandra Zaïnal
Concept & Development : Baudouin d'Aumeries
Co-Development & Prog : Marc-Olivier Méhu
Technical & hardware support : Manuel Goepfert

Contact : metmap@orbifly.com




SOURCES & CREDITS :

   NOAA